Terminal Aerodrome Forecast
Issued by NWS

Home | Current Version | Previous Version | Text Only | Print | Product List | Glossary On
Versions: 1 2 3 4 5 6 7 8 9 10 11 12 13 14 15
000
FTUS42 KMLB 171100
TAFLEE
TAF
KLEE 171125Z 1712/1812 23004KT P6SM SCT015 BKN035
      TEMPO 1712/1714 BKN015
     FM171400 27007KT P6SM VCSH FEW020 BKN100 BKN250
     FM171800 29010KT P6SM VCTS SCT030CB BKN060
     FM180000 31004KT P6SM VCSH BKN040 OVC080=

USA.gov is the U.S. government's official web portal to all federal, state and local government web resources and services.